EGTE/EXT METAR and TAF weather

Enter ICAO airport designator
Station Type Date Time Source
EGTE METAR 2019/07/20 20:20 UTC NOAA

EGTE 202020Z 28006KT 9999 FEW040 17/12 Q1015


Station Type Date Time Source
EGTE Decoded METAR 2019/07/20 20:20 UTC NOAA

Exeter Airport, United Kingdom (EGTE) 50-44N 003-25W
Jul 20, 2019 - 04:20 PM EDT / 2019.07.20 2020 UTC
Wind: from the W (280 degrees) at 7 MPH (6 KT):0
Visibility: greater than 7 mile(s):0
Sky conditions: mostly clear
Temperature: 62 F (17 C)
Dew Point: 53 F (12 C)
Relative Humidity: 72%
Pressure (altimeter): 29.97 in. Hg (1015 hPa)
ob: EGTE 202020Z 28006KT 9999 FEW040 17/12 Q1015
cycle: 20

Station Type Date Time Source
EGTE TAF 2012/04/19 12:15 UTC NOAA

TAF TAF EGTE 191401Z 1912/1924 31016KT 9999 SCT030 SCT035 PROB40
TEMPO 1915/1918 7000 SHRA BKN014

Example: see airport list